Time;durP1;ratioP1;P1;durP2;ratioP2;P2;SDS_P1;SDS_P2;PMS_P1;PMS_P2;Temp;Humidity;BMP_temperature;BMP_pressure;BME280_temperature;BME280_humidity;BME280_pressure;Samples;Min_cycle;Max_cycle;Signal;HPM_P1;HPM_P2
2022/06/12 00:00:19;;;;;;;;;;;27.20;55.70;;;;;;667707;29;1264;-86
2022/06/12 00:00:40;;;;;;;;;;;27.10;55.60;;;;;;667337;29;1296;-87
2022/06/12 00:01:01;;;;;;;;;;;27.20;55.40;;;;;;664460;29;1330;-87
2022/06/12 00:01:22;;;;;;;;;;;27.20;57.80;;;;;;662456;29;1185;-87
2022/06/12 00:01:42;;;;;;;;;;;27.20;55.60;;;;;;662489;29;806;-87
2022/06/12 00:02:04;;;;;;;;;;;27.20;56.10;;;;;;662645;29;829;-86
2022/06/12 00:02:24;;;;;;;;;;;27.00;55.80;;;;;;662578;29;1240;-87
2022/06/12 00:02:45;;;;;;;;;;;27.20;56.00;;;;;;662461;29;1245;-86
2022/06/12 00:03:07;;;;;;;;;;;27.80;56.10;;;;;;660300;29;1221;-86
2022/06/12 00:03:28;;;;;;;;;;;27.20;55.80;;;;;;662460;29;1430;-87
2022/06/12 00:03:49;;;;;;;;;;;27.10;56.60;;;;;;662418;29;1274;-86
2022/06/12 00:04:10;;;;;;;;;;;27.20;55.10;;;;;;662886;29;1459;-87
2022/06/12 00:04:30;;;;;;;;;;;27.20;56.70;;;;;;663030;29;1231;-87
2022/06/12 00:04:51;;;;;;;;;;;27.10;56.60;;;;;;665514;29;1370;-86
2022/06/12 00:05:13;;;;;;;;;;;27.10;55.70;;;;;;664526;29;1284;-86
2022/06/12 00:05:35;;;;;;;;;;;27.10;55.40;;;;;;662426;29;1418;-87
2022/06/12 00:05:56;;;;;;;;;;;27.20;55.50;;;;;;662397;29;1180;-86
2022/06/12 00:06:18;;;;;;;;;;;27.10;55.30;;;;;;662460;29;805;-86
2022/06/12 00:06:38;;;;;;;;;;;27.20;55.10;;;;;;663286;29;822;-87
2022/06/12 00:06:59;;;;;;;;;;;27.10;54.90;;;;;;663368;29;1404;-88
2022/06/12 00:07:20;;;;;;;;;;;27.20;55.50;;;;;;663002;29;1240;-86
2022/06/12 00:07:41;;;;;;;;;;;27.10;56.90;;;;;;664865;29;1417;-87
2022/06/12 00:08:02;;;;;;;;;;;27.10;56.30;;;;;;662587;29;1340;-87
2022/06/12 00:08:23;;;;;;;;;;;27.20;55.70;;;;;;662504;29;805;-86
2022/06/12 00:08:44;;;;;;;;;;;27.10;55.10;;;;;;660318;29;1406;-86
2022/06/12 00:09:04;;;;;;;;;;;27.10;55.20;;;;;;662899;29;1248;-87
2022/06/12 00:09:25;;;;;;;;;;;26.10;56.00;;;;;;665085;29;813;-87
2022/06/12 00:09:45;;;;;;;;;;;27.10;57.20;;;;;;662763;29;1335;-87
2022/06/12 00:10:07;;;;;;;;;;;27.10;56.80;;;;;;665047;29;848;-87
2022/06/12 00:10:28;;;;;;;;;;;27.10;55.70;;;;;;662759;29;1341;-87
2022/06/12 00:10:50;;;;;;;;;;;27.10;55.80;;;;;;662314;29;1366;-86
2022/06/12 00:11:11;;;;;;;;;;;27.10;54.80;;;;;;662457;29;987;-86
2022/06/12 00:11:33;;;;;;;;;;;27.10;56.10;;;;;;663043;29;1379;-87
2022/06/12 00:11:54;;;;;;;;;;;27.10;55.70;;;;;;665186;29;825;-86
2022/06/12 00:12:15;;;;;;;;;;;27.10;55.90;;;;;;663109;29;1572;-87
2022/06/12 00:12:36;;;;;;;;;;;27.10;54.90;;;;;;663067;29;1320;-86
2022/06/12 00:12:57;;;;;;;;;;;27.10;55.50;;;;;;665098;29;797;-86
2022/06/12 00:13:21;;;;;;;;;;;27.10;55.50;;;;;;664946;29;1204;-87
2022/06/12 00:13:47;;;;;;;;;;;27.10;55.50;;;;;;664796;29;1328;-87
2022/06/12 00:14:07;;;;;;;;;;;27.10;55.40;;;;;;666461;29;1364;-86
2022/06/12 00:14:28;;;;;;;;;;;27.10;55.40;;;;;;665059;29;1319;-87
2022/06/12 00:14:48;;;;;;;;;;;27.10;55.60;;;;;;664874;29;1325;-88
2022/06/12 00:15:11;;;;;;;;;;;27.10;55.60;;;;;;664950;29;1181;-87
2022/06/12 00:15:32;;;;;;;;;;;27.10;54.80;;;;;;663951;29;1042;-87
2022/06/12 00:15:53;;;;;;;;;;;27.10;55.40;;;;;;662417;29;1268;-86
2022/06/12 00:16:14;;;;;;;;;;;27.10;55.90;;;;;;662969;29;1319;-87
2022/06/12 00:16:35;;;;;;;;;;;27.10;55.20;;;;;;665444;29;1109;-87
2022/06/12 00:16:55;;;;;;;;;;;27.10;55.60;;;;;;666103;29;1945;-86
2022/06/12 00:17:16;;;;;;;;;;;27.10;57.00;;;;;;667975;29;1343;-86
2022/06/12 00:17:38;;;;;;;;;;;27.10;55.40;;;;;;667984;29;1204;-87
2022/06/12 00:17:59;;;;;;;;;;;27.10;57.00;;;;;;664887;29;1185;-88
2022/06/12 00:18:20;;;;;;;;;;;27.10;55.40;;;;;;662939;29;1235;-87
2022/06/12 00:18:41;;;;;;;;;;;27.10;55.70;;;;;;665378;29;1466;-86
2022/06/12 00:19:02;;;;;;;;;;;27.10;56.20;;;;;;662488;29;1305;-87
2022/06/12 00:19:23;;;;;;;;;;;27.10;55.80;;;;;;663051;29;1266;-87
2022/06/12 00:19:44;;;;;;;;;;;27.10;57.50;;;;;;663384;29;1360;-87
2022/06/12 00:20:05;;;;;;;;;;;27.10;56.30;;;;;;663416;29;1213;-87
2022/06/12 00:20:26;;;;;;;;;;;27.10;55.90;;;;;;664927;29;1220;-87
2022/06/12 00:20:47;;;;;;;;;;;27.10;55.90;;;;;;663536;29;1208;-87
2022/06/12 00:21:11;;;;;;;;;;;27.10;55.90;;;;;;665391;29;1343;-87
2022/06/12 00:21:32;;;;;;;;;;;27.10;55.90;;;;;;666486;29;864;-87
2022/06/12 00:21:53;;;;;;;;;;;27.10;55.50;;;;;;667939;29;1141;-87
2022/06/12 00:22:13;;;;;;;;;;;27.10;55.50;;;;;;667864;29;1269;-86
2022/06/12 00:22:34;;;;;;;;;;;27.10;57.10;;;;;;664361;29;1286;-86
2022/06/12 00:22:55;;;;;;;;;;;27.10;55.40;;;;;;663026;29;1205;-87
2022/06/12 00:23:16;;;;;;;;;;;27.10;55.90;;;;;;662960;29;821;-86
2022/06/12 00:23:48;;;;;;;;;;;27.10;55.60;;;;;;662577;29;1392;-87
2022/06/12 00:24:10;;;;;;;;;;;27.00;55.70;;;;;;662239;29;1379;-87
2022/06/12 00:24:31;;;;;;;;;;;27.00;55.10;;;;;;660499;30;1262;-88
2022/06/12 00:24:51;;;;;;;;;;;27.10;55.80;;;;;;660552;30;1325;-87
2022/06/12 00:25:14;;;;;;;;;;;27.10;55.60;;;;;;660610;30;864;-86
2022/06/12 00:25:34;;;;;;;;;;;27.00;55.60;;;;;;660549;29;1388;-87
2022/06/12 00:25:55;;;;;;;;;;;27.10;57.10;;;;;;660480;30;1272;-86
2022/06/12 00:26:20;;;;;;;;;;;27.10;56.90;;;;;;660822;29;1276;-88
2022/06/12 00:26:42;;;;;;;;;;;27.00;55.20;;;;;;661611;29;1208;-87
2022/06/12 00:27:04;;;;;;;;;;;27.00;55.30;;;;;;663383;29;1490;-87
2022/06/12 00:27:24;;;;;;;;;;;27.10;55.00;;;;;;666551;29;1359;-86
2022/06/12 00:27:47;;;;;;;;;;;27.00;55.70;;;;;;666987;29;867;-86
2022/06/12 00:28:08;;;;;;;;;;;27.00;56.90;;;;;;667890;29;1240;-87
2022/06/12 00:28:29;;;;;;;;;;;27.00;55.60;;;;;;668041;29;943;-87
2022/06/12 00:29:15;;;;;;;;;;;27.10;57.20;;;;;;667011;29;1354;-86
2022/06/12 00:29:36;;;;;;;;;;;27.00;55.10;;;;;;663391;29;1221;-86
2022/06/12 00:29:57;;;;;;;;;;;27.10;56.60;;;;;;662921;29;1248;-86
2022/06/12 00:30:19;;;;;;;;;;;27.10;55.40;;;;;;660771;29;1508;-86
2022/06/12 00:30:40;;;;;;;;;;;27.10;55.40;;;;;;660553;30;869;-87
2022/06/12 00:31:01;;;;;;;;;;;27.10;56.30;;;;;;658020;29;1205;-87
2022/06/12 00:31:21;;;;;;;;;;;27.10;55.60;;;;;;659049;29;1234;-87
2022/06/12 00:31:44;;;;;;;;;;;27.00;55.80;;;;;;660889;29;1206;-87
2022/06/12 00:32:06;;;;;;;;;;;27.10;55.00;;;;;;663670;29;813;-87
2022/06/12 00:32:29;;;;;;;;;;;27.00;55.00;;;;;;662927;29;852;-87
2022/06/12 00:32:52;;;;;;;;;;;27.00;55.50;;;;;;661438;29;1358;-87
2022/06/12 00:33:13;;;;;;;;;;;27.10;56.60;;;;;;662881;29;1247;-86
2022/06/12 00:33:33;;;;;;;;;;;27.10;56.70;;;;;;662830;29;1353;-86
2022/06/12 00:33:54;;;;;;;;;;;27.00;56.70;;;;;;662989;29;789;-86
2022/06/12 00:34:16;;;;;;;;;;;27.00;56.00;;;;;;662770;29;1204;-86
2022/06/12 00:34:38;;;;;;;;;;;27.10;55.80;;;;;;663652;29;801;-86
2022/06/12 00:34:59;;;;;;;;;;;27.10;55.30;;;;;;665485;29;1378;-87
2022/06/12 00:35:24;;;;;;;;;;;27.10;55.40;;;;;;662884;29;1241;-86
2022/06/12 00:35:45;;;;;;;;;;;27.00;54.80;;;;;;660388;29;1256;-86
2022/06/12 00:36:06;;;;;;;;;;;27.10;55.30;;;;;;660477;29;1285;-86
2022/06/12 00:36:28;;;;;;;;;;;27.10;54.60;;;;;;660443;29;1391;-86
2022/06/12 00:36:48;;;;;;;;;;;27.10;54.80;;;;;;661524;29;1907;-86
2022/06/12 00:37:11;;;;;;;;;;;27.10;55.00;;;;;;664108;29;871;-86
2022/06/12 00:37:33;;;;;;;;;;;27.10;55.50;;;;;;666237;29;1198;-86
2022/06/12 00:37:53;;;;;;;;;;;27.00;56.10;;;;;;667165;29;1279;-86
2022/06/12 00:38:17;;;;;;;;;;;27.10;55.20;;;;;;662914;29;1214;-87
2022/06/12 00:38:39;;;;;;;;;;;27.10;54.50;;;;;;663966;29;1245;-88
2022/06/12 00:38:59;;;;;;;;;;;27.10;54.80;;;;;;665355;29;1347;-87
2022/06/12 00:39:23;;;;;;;;;;;27.10;55.10;;;;;;664451;29;1248;-87
2022/06/12 00:39:44;;;;;;;;;;;27.10;54.50;;;;;;663741;29;1372;-86
2022/06/12 00:40:05;;;;;;;;;;;27.10;54.80;;;;;;662918;29;1259;-86
2022/06/12 00:40:26;;;;;;;;;;;27.10;54.80;;;;;;664068;29;796;-86
2022/06/12 00:40:47;;;;;;;;;;;27.10;54.60;;;;;;664629;29;1166;-87
2022/06/12 00:41:07;;;;;;;;;;;27.10;55.50;;;;;;663741;29;800;-87
2022/06/12 00:41:28;;;;;;;;;;;27.80;56.20;;;;;;665442;29;1252;-87
2022/06/12 00:41:50;;;;;;;;;;;27.10;56.20;;;;;;665350;29;1245;-88
2022/06/12 00:42:39;;;;;;;;;;;27.10;54.90;;;;;;665467;29;860;-86
2022/06/12 00:43:01;;;;;;;;;;;27.10;54.50;;;;;;660281;29;904;-87
2022/06/12 00:43:27;;;;;;;;;;;27.10;54.90;;;;;;658698;29;1269;-87
2022/06/12 00:43:48;;;;;;;;;;;27.10;54.90;;;;;;657718;30;1237;-87
2022/06/12 00:44:11;;;;;;;;;;;27.10;54.60;;;;;;657883;30;818;-87
2022/06/12 00:44:40;;;;;;;;;;;27.10;55.00;;;;;;660362;30;1351;-87
2022/06/12 00:45:03;;;;;;;;;;;27.00;54.30;;;;;;657983;29;1261;-87
2022/06/12 00:45:32;;;;;;;;;;;27.10;54.40;;;;;;657735;30;1437;-86
2022/06/12 00:45:55;;;;;;;;;;;27.10;54.30;;;;;;657778;30;1230;-87
2022/06/12 00:46:36;;;;;;;;;;;27.10;55.30;;;;;;657426;30;1267;-87
2022/06/12 00:47:03;;;;;;;;;;;27.10;54.40;;;;;;657820;30;1320;-87
2022/06/12 00:47:24;;;;;;;;;;;27.10;54.50;;;;;;657816;30;1196;-87
2022/06/12 00:47:45;;;;;;;;;;;27.10;54.50;;;;;;657793;30;1287;-87
2022/06/12 00:48:07;;;;;;;;;;;27.10;55.30;;;;;;656976;30;1209;-86
2022/06/12 00:48:31;;;;;;;;;;;27.10;54.80;;;;;;657853;30;1322;-87
2022/06/12 00:48:51;;;;;;;;;;;27.10;54.50;;;;;;660246;29;1277;-86
2022/06/12 00:49:24;;;;;;;;;;;27.10;55.60;;;;;;659383;29;1198;-87
2022/06/12 00:49:46;;;;;;;;;;;27.10;54.10;;;;;;658009;29;1269;-87
2022/06/12 00:50:09;;;;;;;;;;;27.10;54.30;;;;;;657720;30;1270;-87
2022/06/12 00:50:30;;;;;;;;;;;27.10;54.40;;;;;;657915;30;1320;-87
2022/06/12 00:51:02;;;;;;;;;;;27.10;55.10;;;;;;657782;30;1275;-87
2022/06/12 00:51:22;;;;;;;;;;;27.10;53.90;;;;;;657841;30;916;-87
2022/06/12 00:51:43;;;;;;;;;;;27.10;54.10;;;;;;655680;30;1401;-87
2022/06/12 00:52:10;;;;;;;;;;;27.10;54.20;;;;;;657974;30;1373;-87
2022/06/12 00:52:35;;;;;;;;;;;27.10;54.00;;;;;;655378;30;1379;-87
2022/06/12 00:52:56;;;;;;;;;;;27.10;54.00;;;;;;655565;30;1393;-87
2022/06/12 00:53:20;;;;;;;;;;;27.10;54.80;;;;;;657789;30;1182;-86
2022/06/12 00:53:44;;;;;;;;;;;27.10;54.00;;;;;;655292;30;1317;-87
2022/06/12 00:54:06;;;;;;;;;;;27.10;54.40;;;;;;655438;30;1330;-87
2022/06/12 00:54:27;;;;;;;;;;;27.10;54.60;;;;;;657303;30;1288;-87
2022/06/12 00:54:49;;;;;;;;;;;27.10;54.70;;;;;;657756;30;1230;-86
2022/06/12 00:55:14;;;;;;;;;;;27.10;54.50;;;;;;656471;30;782;-87
2022/06/12 00:55:34;;;;;;;;;;;24.90;52.50;;;;;;655290;30;1157;-87
2022/06/12 00:56:01;;;;;;;;;;;26.10;54.80;;;;;;654234;30;1285;-86
2022/06/12 00:56:23;;;;;;;;;;;27.10;53.70;;;;;;655191;30;1413;-86
2022/06/12 00:56:47;;;;;;;;;;;27.00;54.10;;;;;;657343;30;892;-86
2022/06/12 00:57:08;;;;;;;;;;;27.10;54.80;;;;;;657799;30;818;-87
2022/06/12 00:57:29;;;;;;;;;;;27.10;54.10;;;;;;657846;30;1324;-86
2022/06/12 00:57:50;;;;;;;;;;;27.10;54.20;;;;;;657829;30;1312;-86
2022/06/12 00:58:13;;;;;;;;;;;27.10;53.80;;;;;;656753;30;1262;-86
2022/06/12 00:58:37;;;;;;;;;;;27.10;54.40;;;;;;657806;30;1190;-88
2022/06/12 00:59:01;;;;;;;;;;;27.10;54.10;;;;;;657780;30;1422;-86
2022/06/12 00:59:30;;;;;;;;;;;27.10;53.80;;;;;;657884;30;829;-86
2022/06/12 00:59:55;;;;;;;;;;;25.60;52.70;;;;;;660284;30;805;-87
2022/06/12 01:00:17;;;;;;;;;;;27.10;53.50;;;;;;660337;29;1275;-86
2022/06/12 01:00:38;;;;;;;;;;;27.10;53.90;;;;;;655385;30;1315;-87
2022/06/12 01:00:59;;;;;;;;;;;27.10;54.10;;;;;;655371;30;1362;-86
2022/06/12 01:01:25;;;;;;;;;;;27.10;53.90;;;;;;657971;30;1389;-87
2022/06/12 01:01:47;;;;;;;;;;;27.10;53.40;;;;;;657785;30;1315;-87
2022/06/12 01:02:11;;;;;;;;;;;27.10;53.60;;;;;;657650;30;1288;-88
2022/06/12 01:02:33;;;;;;;;;;;27.10;53.70;;;;;;659663;30;1261;-87
2022/06/12 01:02:54;;;;;;;;;;;27.10;53.80;;;;;;656194;30;1281;-87
2022/06/12 01:03:15;;;;;;;;;;;27.10;54.80;;;;;;653656;30;1380;-87
2022/06/12 01:06:33;;;;;;;;;;;27.10;53.90;;;;;;655430;30;1276;-88
2022/06/12 01:06:35;;;;;;;;;;;27.10;53.50;;;;;;657877;30;693;-87
2022/06/12 01:06:57;;;;;;;;;;;27.10;54.30;;;;;;655452;30;1227;-87
2022/06/12 01:07:20;;;;;;;;;;;27.10;53.60;;;;;;655475;30;901;-87
2022/06/12 01:07:43;;;;;;;;;;;27.10;53.50;;;;;;655406;30;1053;-87
2022/06/12 01:08:06;;;;;;;;;;;27.00;53.90;;;;;;655422;30;1219;-88
2022/06/12 01:08:28;;;;;;;;;;;27.00;53.90;;;;;;655374;30;1210;-87
2022/06/12 01:08:49;;;;;;;;;;;27.10;54.10;;;;;;659402;30;1214;-87
2022/06/12 01:09:22;;;;;;;;;;;27.10;54.10;;;;;;660279;29;1111;-88
2022/06/12 01:09:45;;;;;;;;;;;27.00;53.20;;;;;;660249;29;1453;-87
2022/06/12 01:10:08;;;;;;;;;;;27.00;54.00;;;;;;660379;30;1380;-88
2022/06/12 01:10:29;;;;;;;;;;;27.00;53.50;;;;;;660380;29;1267;-89
2022/06/12 01:10:51;;;;;;;;;;;27.00;53.30;;;;;;657951;30;846;-87
2022/06/12 01:11:14;;;;;;;;;;;27.00;53.60;;;;;;657808;30;1214;-89
2022/06/12 01:11:36;;;;;;;;;;;27.10;53.70;;;;;;657801;30;1328;-87
2022/06/12 01:12:01;;;;;;;;;;;27.00;53.30;;;;;;660464;29;1462;-89
2022/06/12 01:12:26;;;;;;;;;;;27.00;53.40;;;;;;658619;30;1523;-86
2022/06/12 01:12:52;;;;;;;;;;;27.10;54.50;;;;;;657711;30;1264;-86
2022/06/12 01:13:15;;;;;;;;;;;27.00;53.40;;;;;;657592;30;1534;-86
2022/06/12 01:13:38;;;;;;;;;;;27.00;53.80;;;;;;655288;30;1256;-86
2022/06/12 01:13:59;;;;;;;;;;;27.00;54.80;;;;;;655173;30;1204;-85
2022/06/12 01:14:23;;;;;;;;;;;27.00;53.40;;;;;;657336;30;1221;-85
2022/06/12 01:14:51;;;;;;;;;;;27.00;53.60;;;;;;655351;30;1227;-88
2022/06/12 01:15:14;;;;;;;;;;;27.00;53.50;;;;;;655381;30;1133;-87
2022/06/12 01:15:36;;;;;;;;;;;27.00;53.60;;;;;;658516;29;1526;-85
2022/06/12 01:15:59;;;;;;;;;;;27.00;53.50;;;;;;653631;30;1519;-86
2022/06/12 01:16:20;;;;;;;;;;;27.00;53.70;;;;;;654425;30;1536;-85
2022/06/12 01:16:45;;;;;;;;;;;27.00;54.30;;;;;;657184;30;1327;-84
2022/06/12 01:17:05;;;;;;;;;;;27.00;53.20;;;;;;657613;30;1891;-86
2022/06/12 01:17:27;;;;;;;;;;;27.00;53.20;;;;;;657803;30;1502;-85
2022/06/12 01:17:48;;;;;;;;;;;27.00;53.30;;;;;;659953;30;1404;-86
2022/06/12 01:18:11;;;;;;;;;;;27.00;53.50;;;;;;660268;29;1145;-86
2022/06/12 01:18:35;;;;;;;;;;;27.00;53.40;;;;;;659137;29;1342;-86
2022/06/12 01:18:56;;;;;;;;;;;27.00;53.50;;;;;;659036;30;1401;-85
2022/06/12 01:19:39;;;;;;;;;;;27.00;53.10;;;;;;658963;30;1011;-86
2022/06/12 01:20:01;;;;;;;;;;;25.70;52.20;;;;;;662696;29;1261;-85
2022/06/12 01:20:25;;;;;;;;;;;27.00;53.30;;;;;;663641;29;1321;-84
2022/06/12 01:20:49;;;;;;;;;;;27.00;54.10;;;;;;667828;29;816;-86
2022/06/12 01:21:12;;;;;;;;;;;27.00;53.40;;;;;;667901;29;928;-86
2022/06/12 01:21:33;;;;;;;;;;;27.00;53.30;;;;;;666022;29;1436;-86
2022/06/12 01:21:54;;;;;;;;;;;27.00;55.00;;;;;;665370;29;1230;-87
2022/06/12 01:22:14;;;;;;;;;;;26.90;53.90;;;;;;663825;29;1232;-86
2022/06/12 01:22:50;;;;;;;;;;;27.00;54.10;;;;;;665276;29;1213;-85
2022/06/12 01:23:29;;;;;;;;;;;27.00;53.20;;;;;;665211;29;1122;-86
2022/06/12 01:23:49;;;;;;;;;;;26.90;53.00;;;;;;669586;29;1375;-87
2022/06/12 01:24:29;;;;;;;;;;;27.00;54.00;;;;;;667790;29;1249;-87
2022/06/12 01:24:50;;;;;;;;;;;27.00;53.00;;;;;;665432;29;1275;-87
2022/06/12 01:25:10;;;;;;;;;;;27.00;53.80;;;;;;667740;29;1244;-87
2022/06/12 01:25:44;;;;;;;;;;;26.90;54.40;;;;;;665364;29;1356;-86
2022/06/12 01:26:08;;;;;;;;;;;26.90;53.30;;;;;;665290;29;1398;-86
2022/06/12 01:26:47;;;;;;;;;;;27.00;53.30;;;;;;665503;29;1579;-89
2022/06/12 01:27:37;;;;;;;;;;;26.90;53.10;;;;;;663203;29;1371;-88
2022/06/12 01:28:03;;;;;;;;;;;27.00;53.40;;;;;;658906;30;1400;-86
2022/06/12 01:28:33;;;;;;;;;;;26.90;53.40;;;;;;657819;30;999;-86
2022/06/12 01:28:57;;;;;;;;;;;26.90;53.30;;;;;;660833;29;1213;-86
2022/06/12 01:29:22;;;;;;;;;;;26.90;53.00;;;;;;662647;29;1333;-87
2022/06/12 01:29:42;;;;;;;;;;;26.90;53.00;;;;;;662739;29;814;-86
2022/06/12 01:30:06;;;;;;;;;;;26.90;53.20;;;;;;662747;29;948;-87
2022/06/12 01:30:30;;;;;;;;;;;26.90;52.90;;;;;;662818;29;1234;-84
2022/06/12 01:30:58;;;;;;;;;;;27.30;53.10;;;;;;660808;29;1517;-86
2022/06/12 01:31:36;;;;;;;;;;;26.90;53.20;;;;;;660101;30;1411;-85
2022/06/12 01:32:01;;;;;;;;;;;26.90;53.30;;;;;;662840;29;1216;-87
2022/06/12 01:32:29;;;;;;;;;;;26.90;53.30;;;;;;662766;29;828;-85
2022/06/12 01:32:50;;;;;;;;;;;26.90;53.20;;;;;;660541;29;806;-85
2022/06/12 01:33:14;;;;;;;;;;;26.90;53.40;;;;;;664201;29;1448;-86
2022/06/12 01:33:41;;;;;;;;;;;26.90;53.70;;;;;;664663;29;1339;-85
2022/06/12 01:34:07;;;;;;;;;;;26.90;53.10;;;;;;665117;29;1344;-87
2022/06/12 01:34:28;;;;;;;;;;;26.90;53.00;;;;;;662802;29;1459;-87
2022/06/12 01:35:00;;;;;;;;;;;26.90;53.30;;;;;;662717;29;815;-87
2022/06/12 01:35:26;;;;;;;;;;;26.90;53.00;;;;;;660209;30;1274;-86
2022/06/12 01:35:56;;;;;;;;;;;26.90;53.10;;;;;;659726;30;1214;-87
2022/06/12 01:36:29;;;;;;;;;;;26.90;53.00;;;;;;658621;30;1408;-86
2022/06/12 01:37:08;;;;;;;;;;;26.90;52.90;;;;;;662553;29;1907;-86
2022/06/12 01:37:37;;;;;;;;;;;26.90;52.90;;;;;;662854;29;1178;-85
2022/06/12 01:38:16;;;;;;;;;;;26.90;52.80;;;;;;662897;29;1319;-85
2022/06/12 01:38:55;;;;;;;;;;;26.90;52.80;;;;;;665035;29;1318;-83
2022/06/12 01:39:37;;;;;;;;;;;26.80;52.60;;;;;;665151;29;987;-83
2022/06/12 01:40:15;;;;;;;;;;;26.80;52.50;;;;;;665210;29;1334;-85
2022/06/12 01:40:38;;;;;;;;;;;26.90;52.80;;;;;;665201;29;809;-85
2022/06/12 01:41:03;;;;;;;;;;;26.80;52.80;;;;;;665338;29;805;-84
2022/06/12 01:41:34;;;;;;;;;;;26.90;52.90;;;;;;665392;29;817;-83
2022/06/12 01:41:57;;;;;;;;;;;26.80;52.70;;;;;;664848;29;1204;-83
2022/06/12 01:42:18;;;;;;;;;;;26.80;52.60;;;;;;665299;29;837;-83
2022/06/12 01:42:47;;;;;;;;;;;26.80;53.00;;;;;;662555;29;1299;-83
2022/06/12 01:43:12;;;;;;;;;;;26.80;52.80;;;;;;662775;29;794;-84
2022/06/12 01:43:42;;;;;;;;;;;26.80;53.00;;;;;;662826;29;900;-83
2022/06/12 01:44:12;;;;;;;;;;;26.90;52.90;;;;;;662869;29;860;-83
2022/06/12 01:44:39;;;;;;;;;;;26.80;53.00;;;;;;664197;29;1326;-82
2022/06/12 01:45:09;;;;;;;;;;;26.80;53.20;;;;;;662096;29;1291;-83
2022/06/12 01:45:45;;;;;;;;;;;26.80;53.00;;;;;;660011;30;1499;-83
2022/06/12 01:46:15;;;;;;;;;;;26.80;52.90;;;;;;660133;30;1043;-82
2022/06/12 01:46:50;;;;;;;;;;;26.90;53.10;;;;;;660288;30;951;-83
2022/06/12 01:47:22;;;;;;;;;;;26.80;52.90;;;;;;662244;29;1605;-84
2022/06/12 01:47:53;;;;;;;;;;;26.90;52.90;;;;;;662643;29;1513;-84
2022/06/12 01:48:32;;;;;;;;;;;26.90;53.20;;;;;;660207;30;1423;-84
2022/06/12 01:49:11;;;;;;;;;;;26.90;53.00;;;;;;657880;30;889;-83
2022/06/12 01:49:43;;;;;;;;;;;26.90;53.00;;;;;;658693;30;1119;-83
2022/06/12 01:50:07;;;;;;;;;;;26.90;52.70;;;;;;661356;29;1198;-84
2022/06/12 01:50:42;;;;;;;;;;;26.90;53.00;;;;;;662933;29;845;-84
2022/06/12 01:51:27;;;;;;;;;;;26.90;52.80;;;;;;662689;29;1377;-83
2022/06/12 01:52:08;;;;;;;;;;;26.90;52.80;;;;;;662699;29;1232;-84
2022/06/12 01:52:37;;;;;;;;;;;26.90;52.90;;;;;;655094;30;1387;-84
2022/06/12 01:53:17;;;;;;;;;;;26.90;52.90;;;;;;662587;29;1083;-84
2022/06/12 01:53:37;;;;;;;;;;;26.90;52.80;;;;;;662454;29;1518;-87
2022/06/12 01:53:58;;;;;;;;;;;26.90;53.10;;;;;;663004;29;1487;-83
2022/06/12 01:54:18;;;;;;;;;;;26.90;54.00;;;;;;662525;29;1397;-84
2022/06/12 01:54:52;;;;;;;;;;;26.90;53.00;;;;;;664756;29;1159;-82
2022/06/12 01:55:17;;;;;;;;;;;26.90;52.90;;;;;;665076;29;1475;-84
2022/06/12 01:55:44;;;;;;;;;;;26.90;53.00;;;;;;662903;29;877;-87
2022/06/12 01:56:13;;;;;;;;;;;26.90;52.70;;;;;;663499;29;1250;-83
2022/06/12 01:56:38;;;;;;;;;;;26.90;52.70;;;;;;663341;29;1372;-84
2022/06/12 01:57:10;;;;;;;;;;;26.90;52.60;;;;;;660737;29;1904;-84
2022/06/12 01:57:49;;;;;;;;;;;26.90;52.60;;;;;;662676;29;1512;-83
2022/06/12 01:58:12;;;;;;;;;;;26.90;52.40;;;;;;662625;29;1285;-84
2022/06/12 01:58:51;;;;;;;;;;;26.90;52.60;;;;;;662633;29;1379;-83
2022/06/12 01:59:21;;;;;;;;;;;26.90;52.60;;;;;;665087;29;920;-83
2022/06/12 01:59:55;;;;;;;;;;;26.90;52.50;;;;;;665160;29;888;-83
2022/06/12 02:00:18;;;;;;;;;;;26.90;52.60;;;;;;662858;29;1123;-84
2022/06/12 02:00:41;;;;;;;;;;;26.90;52.50;;;;;;665055;29;1713;-85
2022/06/12 02:01:11;;;;;;;;;;;26.90;52.60;;;;;;665288;29;1251;-85
2022/06/12 02:01:46;;;;;;;;;;;26.90;52.30;;;;;;662712;29;1208;-85
2022/06/12 02:02:09;;;;;;;;;;;27.00;52.50;;;;;;662621;29;1377;-83
2022/06/12 02:02:37;;;;;;;;;;;26.90;52.10;;;;;;661651;29;909;-83
2022/06/12 02:03:12;;;;;;;;;;;26.90;52.40;;;;;;660532;29;1284;-86
2022/06/12 02:03:51;;;;;;;;;;;26.90;52.20;;;;;;662812;29;927;-90
2022/06/12 02:04:12;;;;;;;;;;;26.90;52.30;;;;;;662628;29;1163;-86
2022/06/12 02:05:00;;;;;;;;;;;26.90;52.40;;;;;;660304;30;1238;-95
2022/06/12 02:13:11;;;;;;;;;;;25.50;51.50;;;;;;672833;29;1471;-90
2022/06/12 02:14:41;;;;;;;;;;;26.90;52.80;;;;;;673504;29;815;-94
2022/06/12 02:15:19;;;;;;;;;;;;;;;;;;;;;
2022/06/12 02:15:45;;;;;;;;;;;27.00;54.70;;;;;;673202;29;1313;-94
2022/06/12 02:16:08;;;;;;;;;;;26.90;53.00;;;;;;673262;29;781;-88
2022/06/12 02:16:34;;;;;;;;;;;26.80;53.60;;;;;;672993;29;1227;-88
2022/06/12 02:16:57;;;;;;;;;;;26.90;53.40;;;;;;672780;29;1919;-89
2022/06/12 02:17:21;;;;;;;;;;;26.90;54.70;;;;;;672930;29;1317;-88
2022/06/12 02:17:46;;;;;;;;;;;26.80;54.10;;;;;;672718;29;1290;-88
2022/06/12 02:18:12;;;;;;;;;;;26.90;53.40;;;;;;672838;29;1267;-87
2022/06/12 02:18:34;;;;;;;;;;;26.90;53.50;;;;;;667922;29;1299;-88
2022/06/12 02:18:58;;;;;;;;;;;26.90;53.30;;;;;;667788;29;1208;-89
2022/06/12 02:19:32;;;;;;;;;;;26.00;52.60;;;;;;667670;29;1196;-89
2022/06/12 02:19:56;;;;;;;;;;;26.90;53.70;;;;;;665521;29;1239;-94
2022/06/12 02:20:18;;;;;;;;;;;26.90;52.70;;;;;;663071;29;1130;-90
2022/06/12 02:20:44;;;;;;;;;;;26.90;53.80;;;;;;665066;29;1451;-90
2022/06/12 02:21:11;;;;;;;;;;;26.90;53.50;;;;;;665659;29;1216;-87
2022/06/12 02:21:31;;;;;;;;;;;26.90;52.40;;;;;;667953;29;1279;-92
2022/06/12 02:22:02;;;;;;;;;;;26.90;53.30;;;;;;667867;29;1335;-88
2022/06/12 02:22:28;;;;;;;;;;;26.90;52.10;;;;;;668043;29;861;-87
2022/06/12 02:22:49;;;;;;;;;;;26.90;52.90;;;;;;666071;29;1346;-89
2022/06/12 02:23:32;;;;;;;;;;;26.00;52.60;;;;;;665179;29;1375;-87
2022/06/12 02:23:55;;;;;;;;;;;26.90;52.70;;;;;;667674;29;1361;-88
2022/06/12 02:24:27;;;;;;;;;;;26.90;53.60;;;;;;667700;29;1176;-88
2022/06/12 02:24:55;;;;;;;;;;;26.80;52.40;;;;;;669804;29;1246;-87
2022/06/12 02:25:26;;;;;;;;;;;26.90;52.30;;;;;;670274;29;1203;-85
2022/06/12 02:25:48;;;;;;;;;;;26.90;52.40;;;;;;667804;29;1283;-87
2022/06/12 02:26:11;;;;;;;;;;;26.80;53.10;;;;;;665279;29;1212;-89
2022/06/12 02:26:37;;;;;;;;;;;26.90;52.80;;;;;;663310;29;1326;-86
2022/06/12 02:27:03;;;;;;;;;;;26.90;52.10;;;;;;664545;29;1527;-86
2022/06/12 02:27:29;;;;;;;;;;;26.90;52.00;;;;;;665362;29;1196;-86
2022/06/12 02:27:51;;;;;;;;;;;26.90;52.30;;;;;;663284;29;1419;-87
2022/06/12 02:28:15;;;;;;;;;;;26.80;52.30;;;;;;662836;29;1051;-86
2022/06/12 02:28:40;;;;;;;;;;;26.80;52.40;;;;;;662856;29;1276;-87
2022/06/12 02:29:02;;;;;;;;;;;26.80;52.30;;;;;;662825;29;797;-85
2022/06/12 02:29:24;;;;;;;;;;;26.80;52.70;;;;;;662786;29;1316;-86
2022/06/12 02:29:44;;;;;;;;;;;26.90;52.90;;;;;;665158;29;1271;-85
2022/06/12 02:30:13;;;;;;;;;;;26.90;53.50;;;;;;666502;29;1218;-86
2022/06/12 02:30:37;;;;;;;;;;;26.80;52.10;;;;;;669542;29;1100;-88
2022/06/12 02:31:00;;;;;;;;;;;26.90;52.30;;;;;;667731;29;1229;-86
2022/06/12 02:31:29;;;;;;;;;;;26.80;52.30;;;;;;665517;29;1252;-88
2022/06/12 02:31:51;;;;;;;;;;;26.80;52.10;;;;;;664711;29;1138;-85
2022/06/12 02:32:20;;;;;;;;;;;26.80;52.30;;;;;;664639;29;983;-84
2022/06/12 02:32:56;;;;;;;;;;;26.80;52.00;;;;;;667070;29;1515;-86
2022/06/12 02:33:20;;;;;;;;;;;26.80;52.10;;;;;;671483;29;1263;-86
2022/06/12 02:33:44;;;;;;;;;;;26.80;52.10;;;;;;672975;29;1337;-87
2022/06/12 02:34:06;;;;;;;;;;;26.80;52.20;;;;;;671091;29;1385;-87
2022/06/12 02:34:30;;;;;;;;;;;26.80;52.50;;;;;;668699;29;1255;-85
2022/06/12 02:34:54;;;;;;;;;;;26.80;52.40;;;;;;668153;29;1181;-88
2022/06/12 02:35:24;;;;;;;;;;;26.80;52.00;;;;;;668096;29;1324;-88
2022/06/12 02:35:50;;;;;;;;;;;26.80;51.90;;;;;;668414;29;1260;-85
2022/06/12 02:36:16;;;;;;;;;;;26.80;51.80;;;;;;668400;29;1331;-86
2022/06/12 02:36:38;;;;;;;;;;;26.80;51.80;;;;;;668230;29;1148;-87
2022/06/12 02:37:02;;;;;;;;;;;26.80;52.60;;;;;;665870;29;1904;-88
2022/06/12 02:37:24;;;;;;;;;;;26.80;52.00;;;;;;668239;29;1245;-86
2022/06/12 02:37:47;;;;;;;;;;;26.80;52.10;;;;;;665440;29;1474;-86
2022/06/12 02:38:17;;;;;;;;;;;26.80;51.90;;;;;;668105;29;1189;-89
2022/06/12 02:38:40;;;;;;;;;;;26.80;51.70;;;;;;668046;29;984;-86
2022/06/12 02:39:19;;;;;;;;;;;26.80;52.30;;;;;;665378;29;1223;-89
2022/06/12 02:39:42;;;;;;;;;;;26.80;52.20;;;;;;667315;29;1263;-88
2022/06/12 02:40:07;;;;;;;;;;;26.80;52.10;;;;;;668215;29;1299;-87
2022/06/12 02:40:30;;;;;;;;;;;26.80;53.20;;;;;;667065;29;1306;-88
2022/06/12 02:40:53;;;;;;;;;;;26.80;51.80;;;;;;666289;29;1397;-88
2022/06/12 02:41:18;;;;;;;;;;;26.80;52.90;;;;;;665726;29;1475;-87
2022/06/12 02:41:58;;;;;;;;;;;26.70;52.50;;;;;;663223;29;1448;-86